Time;durP1;ratioP1;P1;durP2;ratioP2;P2;SDS_P1;SDS_P2;PMS_P1;PMS_P2;Temp;Humidity;BMP_temperature;BMP_pressure;BME280_temperature;BME280_humidity;BME280_pressure;Samples;Min_cycle;Max_cycle;Signal;HPM_P1;HPM_P2
2023/08/21 00:01:57;;;;;;;;;;;;;;;;;;5015522;28;20317;-77
2023/08/21 00:04:23;;;;;;;;;;;;;;;;;;5032261;28;19925;-76
2023/08/21 00:06:49;;;;;;;;;;;;;;;;;;5031640;28;20420;-77
2023/08/21 00:09:15;;;;;;;;;;;;;;;;;;5021583;28;20317;-76
2023/08/21 00:11:41;;;;;;;;;;;;;;;;;;5032612;28;19928;-77
2023/08/21 00:14:07;;;;;;;;;;;;;;;;;;5031281;28;19925;-76
2023/08/21 00:16:32;;;;;;;;;;;;;;;;;;5032042;28;19925;-76
2023/08/21 00:18:59;;;;;;;;;;;;;;;;;;5015143;28;19921;-76
2023/08/21 00:21:25;;;;;;;;;;;;;;;;;;5022709;28;19925;-77
2023/08/21 00:23:50;;;;;;;;;;;;;;;;;;5031307;28;19925;-77
2023/08/21 00:26:16;;;;;;;;;;;;;;;;;;5015572;28;20374;-77
2023/08/21 00:28:42;;;;;;;;;;;;;;;;;;5015293;28;19943;-77
2023/08/21 00:31:08;;;;;;;;;;;;;;;;;;5031802;28;19929;-77
2023/08/21 00:33:34;;;;;;;;;;;;;;;;;;5012764;28;19929;-77
2023/08/21 00:36:00;;;;;;;;;;;;;;;;;;5011898;28;20020;-77
2023/08/21 00:38:26;;;;;;;;;;;;;;;;;;5012615;28;20378;-76
2023/08/21 00:40:52;;;;;;;;;;;;;;;;;;5011539;28;20381;-77
2023/08/21 00:43:18;;;;;;;;;;;;;;;;;;5028317;28;19925;-77
2023/08/21 00:45:44;;;;;;;;;;;;;;;;;;5014440;28;19928;-76
2023/08/21 00:48:10;;;;;;;;;;;;;;;;;;5031822;28;19921;-76
2023/08/21 00:50:36;;;;;;;;;;;;;;;;;;5032011;28;19929;-76
2023/08/21 00:53:03;;;;;;;;;;;;;;;;;;5031481;28;19974;-76
2023/08/21 00:55:29;;;;;;;;;;;;;;;;;;5028547;28;19970;-77
2023/08/21 00:57:54;;;;;;;;;;;;;;;;;;5011042;28;20015;-78
2023/08/21 01:00:22;;;;;;;;;;;;;;;;;;5011811;28;19929;-76
2023/08/21 01:02:48;;;;;;;;;;;;;;;;;;5013637;28;20004;-77
2023/08/21 01:05:14;;;;;;;;;;;;;;;;;;5030460;28;19948;-77
2023/08/21 01:07:39;;;;;;;;;;;;;;;;;;5032032;28;19921;-76
2023/08/21 01:10:06;;;;;;;;;;;;;;;;;;5031087;28;20392;-77
2023/08/21 01:12:32;;;;;;;;;;;;;;;;;;5031243;28;20374;-76
2023/08/21 01:14:57;;;;;;;;;;;;;;;;;;5013376;28;19968;-76
2023/08/21 01:17:23;;;;;;;;;;;;;;;;;;5031245;28;19921;-76
2023/08/21 01:19:49;;;;;;;;;;;;;;;;;;5011565;28;19928;-77
2023/08/21 01:22:15;;;;;;;;;;;;;;;;;;5012197;28;20394;-76
2023/08/21 01:24:41;;;;;;;;;;;;;;;;;;5031385;28;20366;-77
2023/08/21 01:27:07;;;;;;;;;;;;;;;;;;5013751;28;20583;-77
2023/08/21 01:29:33;;;;;;;;;;;;;;;;;;5014809;28;19971;-77
2023/08/21 01:31:59;;;;;;;;;;;;;;;;;;5013829;28;19921;-77
2023/08/21 01:34:25;;;;;;;;;;;;;;;;;;5014203;28;19968;-77
2023/08/21 01:36:51;;;;;;;;;;;;;;;;;;5011521;28;19925;-77
2023/08/21 01:39:17;;;;;;;;;;;;;;;;;;5011096;28;20074;-77
2023/08/21 01:41:43;;;;;;;;;;;;;;;;;;5028906;28;19921;-76
2023/08/21 01:44:09;;;;;;;;;;;;;;;;;;5030126;28;20015;-76
2023/08/21 01:46:35;;;;;;;;;;;;;;;;;;5014189;28;19925;-77
2023/08/21 01:49:01;;;;;;;;;;;;;;;;;;5013681;28;19928;-77
2023/08/21 01:51:26;;;;;;;;;;;;;;;;;;5031226;28;19921;-77
2023/08/21 01:53:52;;;;;;;;;;;;;;;;;;5030817;28;19921;-76
2023/08/21 01:56:18;;;;;;;;;;;;;;;;;;5030000;28;19936;-77
2023/08/21 01:58:44;;;;;;;;;;;;;;;;;;5013983;28;19968;-76
2023/08/21 02:01:10;;;;;;;;;;;;;;;;;;5010582;28;20367;-77
2023/08/21 02:03:36;;;;;;;;;;;;;;;;;;5020391;28;20392;-77
2023/08/21 02:06:02;;;;;;;;;;;;;;;;;;5030520;28;19925;-77
2023/08/21 02:08:28;;;;;;;;;;;;;;;;;;5011323;28;19972;-77
2023/08/21 02:10:54;;;;;;;;;;;;;;;;;;5010940;28;19928;-76
2023/08/21 02:13:20;;;;;;;;;;;;;;;;;;5009776;28;19925;-77
2023/08/21 02:15:46;;;;;;;;;;;;;;;;;;5017713;28;19944;-77
2023/08/21 02:18:12;;;;;;;;;;;;;;;;;;5030073;28;19947;-77
2023/08/21 02:20:38;;;;;;;;;;;;;;;;;;5031139;28;20446;-77
2023/08/21 02:23:04;;;;;;;;;;;;;;;;;;5010575;28;19944;-77
2023/08/21 02:25:30;;;;;;;;;;;;;;;;;;5011166;28;19921;-77
2023/08/21 02:27:56;;;;;;;;;;;;;;;;;;4993833;28;19927;-77
2023/08/21 02:30:25;;;;;;;;;;;;;;;;;;4994279;28;19921;-77
2023/08/21 02:32:51;;;;;;;;;;;;;;;;;;5010181;28;20385;-77
2023/08/21 02:35:17;;;;;;;;;;;;;;;;;;5011187;28;19921;-77
2023/08/21 02:37:43;;;;;;;;;;;;;;;;;;5030169;28;20000;-76
2023/08/21 02:40:09;;;;;;;;;;;;;;;;;;5030029;28;19956;-76
2023/08/21 02:42:35;;;;;;;;;;;;;;;;;;5030248;28;19932;-76
2023/08/21 02:45:03;;;;;;;;;;;;;;;;;;5030035;28;19928;-78
2023/08/21 02:47:29;;;;;;;;;;;;;;;;;;5030024;28;20317;-76
2023/08/21 02:49:55;;;;;;;;;;;;;;;;;;5030545;28;19931;-76
2023/08/21 02:52:21;;;;;;;;;;;;;;;;;;5013411;28;19928;-76
2023/08/21 02:54:47;;;;;;;;;;;;;;;;;;5030053;28;19921;-76
2023/08/21 02:57:13;;;;;;;;;;;;;;;;;;5012284;28;19959;-76
2023/08/21 02:59:39;;;;;;;;;;;;;;;;;;5030207;28;19921;-77
2023/08/21 03:02:05;;;;;;;;;;;;;;;;;;5029272;28;19968;-76
2023/08/21 03:04:31;;;;;;;;;;;;;;;;;;5010343;28;19921;-76
2023/08/21 03:06:57;;;;;;;;;;;;;;;;;;5030836;28;19947;-76
2023/08/21 03:09:23;;;;;;;;;;;;;;;;;;5031661;28;20503;-76
2023/08/21 03:11:49;;;;;;;;;;;;;;;;;;5033286;28;19921;-77
2023/08/21 03:14:15;;;;;;;;;;;;;;;;;;5016760;28;19932;-76
2023/08/21 03:16:41;;;;;;;;;;;;;;;;;;5033468;28;20400;-76
2023/08/21 03:19:07;;;;;;;;;;;;;;;;;;5033616;28;20358;-76
2023/08/21 03:21:32;;;;;;;;;;;;;;;;;;5032979;28;20370;-75
2023/08/21 03:24:02;;;;;;;;;;;;;;;;;;5032989;28;20430;-76
2023/08/21 03:26:27;;;;;;;;;;;;;;;;;;5033152;28;19921;-76
2023/08/21 03:28:53;;;;;;;;;;;;;;;;;;5033029;28;19921;-76
2023/08/21 03:31:19;;;;;;;;;;;;;;;;;;5032727;28;19920;-76
2023/08/21 03:33:46;;;;;;;;;;;;;;;;;;5033605;28;19932;-76
2023/08/21 03:36:12;;;;;;;;;;;;;;;;;;5033363;28;19928;-76
2023/08/21 03:38:38;;;;;;;;;;;;;;;;;;5017101;28;19921;-76
2023/08/21 03:41:05;;;;;;;;;;;;;;;;;;5017019;28;20059;-76
2023/08/21 03:43:30;;;;;;;;;;;;;;;;;;5031557;28;19928;-76
2023/08/21 03:45:56;;;;;;;;;;;;;;;;;;5032380;28;19925;-76
2023/08/21 03:48:22;;;;;;;;;;;;;;;;;;5033073;28;19928;-76
2023/08/21 03:50:48;;;;;;;;;;;;;;;;;;5030258;28;19921;-76
2023/08/21 03:53:14;;;;;;;;;;;;;;;;;;5032755;28;19920;-76
2023/08/21 03:55:40;;;;;;;;;;;;;;;;;;5013313;28;19922;-76
2023/08/21 03:58:06;;;;;;;;;;;;;;;;;;5012263;28;19922;-78
2023/08/21 04:00:32;;;;;;;;;;;;;;;;;;5014693;28;19947;-76
2023/08/21 04:02:58;;;;;;;;;;;;;;;;;;5015888;28;20742;-76
2023/08/21 04:05:24;;;;;;;;;;;;;;;;;;5032192;28;20258;-76
2023/08/21 04:07:50;;;;;;;;;;;;;;;;;;5016590;28;19990;-76
2023/08/21 04:10:16;;;;;;;;;;;;;;;;;;5032577;28;19944;-76
2023/08/21 04:12:42;;;;;;;;;;;;;;;;;;5032058;28;20007;-76
2023/08/21 04:15:08;;;;;;;;;;;;;;;;;;5032038;28;19928;-78
2023/08/21 04:17:34;;;;;;;;;;;;;;;;;;5032142;28;19925;-76
2023/08/21 04:20:00;;;;;;;;;;;;;;;;;;5032669;28;20440;-76
2023/08/21 04:22:26;;;;;;;;;;;;;;;;;;5018044;28;19943;-76
2023/08/21 04:24:52;;;;;;;;;;;;;;;;;;5032679;28;19921;-76
2023/08/21 04:27:18;;;;;;;;;;;;;;;;;;5030602;28;20280;-76
2023/08/21 04:29:44;;;;;;;;;;;;;;;;;;5031397;28;20321;-76
2023/08/21 04:32:10;;;;;;;;;;;;;;;;;;5032123;28;20442;-77
2023/08/21 04:34:36;;;;;;;;;;;;;;;;;;5031833;28;19921;-76
2023/08/21 04:37:02;;;;;;;;;;;;;;;;;;5032108;28;19928;-76
2023/08/21 04:39:28;;;;;;;;;;;;;;;;;;5031647;28;19987;-76
2023/08/21 04:41:54;;;;;;;;;;;;;;;;;;5031879;28;19921;-76
2023/08/21 04:44:20;;;;;;;;;;;;;;;;;;5031010;28;19921;-77
2023/08/21 04:46:46;;;;;;;;;;;;;;;;;;5014694;28;19920;-76
2023/08/21 04:49:12;;;;;;;;;;;;;;;;;;5012520;28;19921;-78
2023/08/21 04:51:38;;;;;;;;;;;;;;;;;;5031132;28;19943;-76
2023/08/21 04:54:04;;;;;;;;;;;;;;;;;;5031955;28;20401;-76
2023/08/21 04:56:30;;;;;;;;;;;;;;;;;;5031779;28;20267;-76
2023/08/21 04:58:55;;;;;;;;;;;;;;;;;;5031134;28;19924;-76
2023/08/21 05:01:21;;;;;;;;;;;;;;;;;;5030527;28;19979;-76
2023/08/21 05:03:47;;;;;;;;;;;;;;;;;;5032000;28;19921;-76
2023/08/21 05:06:15;;;;;;;;;;;;;;;;;;5013903;28;20504;-78
2023/08/21 05:08:41;;;;;;;;;;;;;;;;;;5011795;28;20022;-76
2023/08/21 05:11:07;;;;;;;;;;;;;;;;;;5027584;28;20373;-76
2023/08/21 05:13:33;;;;;;;;;;;;;;;;;;5029792;28;19999;-76
2023/08/21 05:15:59;;;;;;;;;;;;;;;;;;5031056;28;20070;-76
2023/08/21 05:18:25;;;;;;;;;;;;;;;;;;5028482;28;19932;-76
2023/08/21 05:20:51;;;;;;;;;;;;;;;;;;5029662;28;20416;-75
2023/08/21 05:23:17;;;;;;;;;;;;;;;;;;5031082;28;20012;-77
2023/08/21 05:25:43;;;;;;;;;;;;;;;;;;5031219;28;19967;-75
2023/08/21 05:28:09;;;;;;;;;;;;;;;;;;5028999;28;19921;-75
2023/08/21 05:30:35;;;;;;;;;;;;;;;;;;5014502;28;19925;-76
2023/08/21 05:33:01;;;;;;;;;;;;;;;;;;5031296;28;19925;-75
2023/08/21 05:35:27;;;;;;;;;;;;;;;;;;5030769;28;20063;-75
2023/08/21 05:37:53;;;;;;;;;;;;;;;;;;5031396;28;19921;-76
2023/08/21 05:40:19;;;;;;;;;;;;;;;;;;5031047;28;19975;-77
2023/08/21 05:42:45;;;;;;;;;;;;;;;;;;5015069;28;19925;-76
2023/08/21 05:45:11;;;;;;;;;;;;;;;;;;5028453;28;20384;-76
2023/08/21 05:47:37;;;;;;;;;;;;;;;;;;5028748;28;20594;-76
2023/08/21 05:50:03;;;;;;;;;;;;;;;;;;5029923;28;19982;-76
2023/08/21 05:52:29;;;;;;;;;;;;;;;;;;5029384;28;19921;-76
2023/08/21 05:54:55;;;;;;;;;;;;;;;;;;5029898;28;19932;-75
2023/08/21 05:57:21;;;;;;;;;;;;;;;;;;5029583;28;19921;-78
2023/08/21 05:59:47;;;;;;;;;;;;;;;;;;5030844;28;19921;-76
2023/08/21 06:02:13;;;;;;;;;;;;;;;;;;5030752;28;19921;-76
2023/08/21 06:04:39;;;;;;;;;;;;;;;;;;5030156;28;20405;-77
2023/08/21 06:07:05;;;;;;;;;;;;;;;;;;5030783;28;19971;-75
2023/08/21 06:09:33;;;;;;;;;;;;;;;;;;5030526;28;19921;-76
2023/08/21 06:11:59;;;;;;;;;;;;;;;;;;5010502;28;19976;-76
2023/08/21 06:14:28;;;;;;;;;;;;;;;;;;5010625;28;19975;-76
2023/08/21 06:16:54;;;;;;;;;;;;;;;;;;5011016;28;20038;-76
2023/08/21 06:19:20;;;;;;;;;;;;;;;;;;5024741;28;20015;-76
2023/08/21 06:21:46;;;;;;;;;;;;;;;;;;5030498;28;19928;-75
2023/08/21 06:24:12;;;;;;;;;;;;;;;;;;5023282;28;19921;-75
2023/08/21 06:26:38;;;;;;;;;;;;;;;;;;5029123;28;19921;-76
2023/08/21 06:29:04;;;;;;;;;;;;;;;;;;5030156;28;19921;-75
2023/08/21 06:31:30;;;;;;;;;;;;;;;;;;5012738;28;19982;-76
2023/08/21 06:33:56;;;;;;;;;;;;;;;;;;5030889;28;19921;-75
2023/08/21 06:36:22;;;;;;;;;;;;;;;;;;5030949;28;19947;-67
2023/08/21 06:38:48;;;;;;;;;;;;;;;;;;5030104;28;19928;-75
2023/08/21 06:41:14;;;;;;;;;;;;;;;;;;5032911;28;19999;-68
2023/08/21 06:43:40;;;;;;;;;;;;;;;;;;5034180;28;19928;-69
2023/08/21 06:46:07;;;;;;;;;;;;;;;;;;5032703;28;19932;-68
2023/08/21 06:48:33;;;;;;;;;;;;;;;;;;5022174;28;20103;-72
2023/08/21 06:50:59;;;;;;;;;;;;;;;;;;5033945;28;19975;-73
2023/08/21 06:53:25;;;;;;;;;;;;;;;;;;5032695;28;19951;-73
2023/08/21 06:55:50;;;;;;;;;;;;;;;;;;5031874;28;19979;-73
2023/08/21 06:58:16;;;;;;;;;;;;;;;;;;5032363;28;19925;-73
2023/08/21 07:00:42;;;;;;;;;;;;;;;;;;5031535;28;19965;-74
2023/08/21 07:03:08;;;;;;;;;;;;;;;;;;5033617;28;19928;-71
2023/08/21 07:05:34;;;;;;;;;;;;;;;;;;5032535;28;19924;-70
2023/08/21 07:08:00;;;;;;;;;;;;;;;;;;5033858;28;19921;-76
2023/08/21 07:10:26;;;;;;;;;;;;;;;;;;5016695;28;20012;-75
2023/08/21 07:12:52;;;;;;;;;;;;;;;;;;5032213;28;19925;-75
2023/08/21 07:15:18;;;;;;;;;;;;;;;;;;5025761;28;20365;-75
2023/08/21 07:17:44;;;;;;;;;;;;;;;;;;5031105;28;20373;-77
2023/08/21 07:20:10;;;;;;;;;;;;;;;;;;5032619;28;19928;-77
2023/08/21 07:22:36;;;;;;;;;;;;;;;;;;5015289;28;19928;-77
2023/08/21 07:25:04;;;;;;;;;;;;;;;;;;5016526;28;19921;-76
2023/08/21 07:27:30;;;;;;;;;;;;;;;;;;5032694;28;20400;-76
2023/08/21 07:29:56;;;;;;;;;;;;;;;;;;5032475;28;19925;-76
2023/08/21 07:32:22;;;;;;;;;;;;;;;;;;5013339;28;19921;-76
2023/08/21 07:34:47;;;;;;;;;;;;;;;;;;5030428;28;19921;-77
2023/08/21 07:37:13;;;;;;;;;;;;;;;;;;5033554;28;19921;-77
2023/08/21 07:39:39;;;;;;;;;;;;;;;;;;5032114;28;19932;-77
2023/08/21 07:42:05;;;;;;;;;;;;;;;;;;5032225;28;19929;-77
2023/08/21 07:44:31;;;;;;;;;;;;;;;;;;5032775;28;19921;-77
2023/08/21 07:46:57;;;;;;;;;;;;;;;;;;5032137;28;20381;-76
2023/08/21 07:49:23;;;;;;;;;;;;;;;;;;5032726;28;19968;-76
2023/08/21 07:51:49;;;;;;;;;;;;;;;;;;5032023;28;20497;-76
2023/08/21 07:54:15;;;;;;;;;;;;;;;;;;5032337;28;19931;-76
2023/08/21 07:56:41;;;;;;;;;;;;;;;;;;5015509;28;19921;-71
2023/08/21 07:59:07;;;;;;;;;;;;;;;;;;5032840;28;20369;-71
2023/08/21 08:01:33;;;;;;;;;;;;;;;;;;5033074;28;19921;-72
2023/08/21 08:03:59;;;;;;;;;;;;;;;;;;5031419;28;20012;-72
2023/08/21 08:06:25;;;;;;;;;;;;;;;;;;5033909;28;20079;-72
2023/08/21 08:08:51;;;;;;;;;;;;;;;;;;5032605;28;20372;-72
2023/08/21 08:11:17;;;;;;;;;;;;;;;;;;5033891;28;19946;-67
2023/08/21 08:13:43;;;;;;;;;;;;;;;;;;5032047;28;19921;-72
2023/08/21 08:16:09;;;;;;;;;;;;;;;;;;5032519;28;20373;-68
2023/08/21 08:18:35;;;;;;;;;;;;;;;;;;5033538;28;19921;-68
2023/08/21 08:21:01;;;;;;;;;;;;;;;;;;5033097;28;19975;-68
2023/08/21 08:23:27;;;;;;;;;;;;;;;;;;5033264;28;19921;-75
2023/08/21 08:25:53;;;;;;;;;;;;;;;;;;5032046;28;20038;-75
2023/08/21 08:28:19;;;;;;;;;;;;;;;;;;5031905;28;19925;-81
2023/08/21 08:30:45;;;;;;;;;;;;;;;;;;5031086;28;19921;-81
2023/08/21 08:33:11;;;;;;;;;;;;;;;;;;5032011;28;19921;-83
2023/08/21 08:35:37;;;;;;;;;;;;;;;;;;5015946;28;19925;-81
2023/08/21 08:38:03;;;;;;;;;;;;;;;;;;5031432;28;19921;-81
2023/08/21 08:40:29;;;;;;;;;;;;;;;;;;5032483;28;20317;-81
2023/08/21 08:42:55;;;;;;;;;;;;;;;;;;5030709;28;19932;-80
2023/08/21 08:45:21;;;;;;;;;;;;;;;;;;5033124;28;20290;-81
2023/08/21 08:47:47;;;;;;;;;;;;;;;;;;5031532;28;19921;-73
2023/08/21 08:50:13;;;;;;;;;;;;;;;;;;5031642;28;19920;-73
2023/08/21 08:52:38;;;;;;;;;;;;;;;;;;5031485;28;20020;-74
2023/08/21 08:55:06;;;;;;;;;;;;;;;;;;5014260;28;19920;-74
2023/08/21 08:57:32;;;;;;;;;;;;;;;;;;5015335;28;19965;-74
2023/08/21 08:59:58;;;;;;;;;;;;;;;;;;5031147;28;20364;-74
2023/08/21 09:02:28;;;;;;;;;;;;;;;;;;5014197;28;19925;-74
2023/08/21 09:04:54;;;;;;;;;;;;;;;;;;5030855;28;19925;-75
2023/08/21 09:07:20;;;;;;;;;;;;;;;;;;5031795;28;19947;-75
2023/08/21 09:09:46;;;;;;;;;;;;;;;;;;5031342;28;19921;-75
2023/08/21 09:12:12;;;;;;;;;;;;;;;;;;5031517;28;19921;-75
2023/08/21 09:14:38;;;;;;;;;;;;;;;;;;5014361;28;19928;-75
2023/08/21 09:17:04;;;;;;;;;;;;;;;;;;5030737;28;19975;-75
2023/08/21 09:19:30;;;;;;;;;;;;;;;;;;5031624;28;19976;-75
2023/08/21 09:21:56;;;;;;;;;;;;;;;;;;5031256;28;19974;-74
2023/08/21 09:24:23;;;;;;;;;;;;;;;;;;5015186;28;19924;-74
2023/08/21 09:26:49;;;;;;;;;;;;;;;;;;5011835;28;20297;-75
2023/08/21 09:29:15;;;;;;;;;;;;;;;;;;5030556;28;20016;-74
2023/08/21 09:31:43;;;;;;;;;;;;;;;;;;5031018;28;19921;-74
2023/08/21 09:34:09;;;;;;;;;;;;;;;;;;5030892;28;20358;-74
2023/08/21 09:36:35;;;;;;;;;;;;;;;;;;5030939;28;19924;-74
2023/08/21 09:39:02;;;;;;;;;;;;;;;;;;5030824;28;19932;-74
2023/08/21 09:41:28;;;;;;;;;;;;;;;;;;5031538;28;20346;-74
2023/08/21 09:43:54;;;;;;;;;;;;;;;;;;5029074;28;19929;-74
2023/08/21 09:46:20;;;;;;;;;;;;;;;;;;5030409;28;19928;-73
2023/08/21 09:48:46;;;;;;;;;;;;;;;;;;5030563;28;19925;-77
2023/08/21 09:51:12;;;;;;;;;;;;;;;;;;5031103;28;19925;-75
2023/08/21 09:53:39;;;;;;;;;;;;;;;;;;5030407;28;20405;-74
2023/08/21 09:56:05;;;;;;;;;;;;;;;;;;5029257;28;19935;-75
2023/08/21 09:58:31;;;;;;;;;;;;;;;;;;5028825;28;19929;-75
2023/08/21 10:00:57;;;;;;;;;;;;;;;;;;5029190;28;19984;-75
2023/08/21 10:03:23;;;;;;;;;;;;;;;;;;5013697;28;19921;-76
2023/08/21 10:05:49;;;;;;;;;;;;;;;;;;5028151;28;19936;-77
2023/08/21 10:08:15;;;;;;;;;;;;;;;;;;5030176;28;19924;-76
2023/08/21 10:10:41;;;;;;;;;;;;;;;;;;5029554;28;19921;-76
2023/08/21 10:13:07;;;;;;;;;;;;;;;;;;5027170;28;20121;-77
2023/08/21 10:15:33;;;;;;;;;;;;;;;;;;5030836;28;19925;-77
2023/08/21 10:17:59;;;;;;;;;;;;;;;;;;5024952;28;20320;-77
2023/08/21 10:20:25;;;;;;;;;;;;;;;;;;5033737;28;20180;-76
2023/08/21 10:22:51;;;;;;;;;;;;;;;;;;5032736;28;19928;-77
2023/08/21 10:25:17;;;;;;;;;;;;;;;;;;5033794;28;19921;-76
2023/08/21 10:27:43;;;;;;;;;;;;;;;;;;5032770;28;19921;-76
2023/08/21 10:30:09;;;;;;;;;;;;;;;;;;5014626;28;20007;-77
2023/08/21 10:32:35;;;;;;;;;;;;;;;;;;5032045;28;20532;-76
2023/08/21 10:35:01;;;;;;;;;;;;;;;;;;5033572;28;19932;-76
2023/08/21 10:37:27;;;;;;;;;;;;;;;;;;5032511;28;19921;-76
2023/08/21 10:39:53;;;;;;;;;;;;;;;;;;5014499;28;20386;-75
2023/08/21 10:42:19;;;;;;;;;;;;;;;;;;5032588;28;20369;-74
2023/08/21 10:44:45;;;;;;;;;;;;;;;;;;5016672;28;19921;-73
2023/08/21 10:47:11;;;;;;;;;;;;;;;;;;5032296;28;20417;-73
2023/08/21 10:49:37;;;;;;;;;;;;;;;;;;5017025;28;20020;-74
2023/08/21 10:52:03;;;;;;;;;;;;;;;;;;5031775;28;19925;-73
2023/08/21 10:54:29;;;;;;;;;;;;;;;;;;5018374;28;20032;-70
2023/08/21 10:56:55;;;;;;;;;;;;;;;;;;5034141;28;19925;-71
2023/08/21 10:59:21;;;;;;;;;;;;;;;;;;5050426;28;20401;-71
2023/08/21 11:01:49;;;;;;;;;;;;;;;;;;5033322;28;19975;-71
2023/08/21 11:04:15;;;;;;;;;;;;;;;;;;5028623;28;19968;-68
2023/08/21 11:06:41;;;;;;;;;;;;;;;;;;5034675;28;19960;-72
2023/08/21 11:09:07;;;;;;;;;;;;;;;;;;5034012;28;20290;-74
2023/08/21 11:11:34;;;;;;;;;;;;;;;;;;5034793;28;19921;-74
2023/08/21 11:14:00;;;;;;;;;;;;;;;;;;5032214;28;20020;-69
2023/08/21 11:16:26;;;;;;;;;;;;;;;;;;5033651;28;19925;-74
2023/08/21 11:18:52;;;;;;;;;;;;;;;;;;5033792;28;19921;-76
2023/08/21 11:21:18;;;;;;;;;;;;;;;;;;5033244;28;19925;-76
2023/08/21 11:23:44;;;;;;;;;;;;;;;;;;5032205;28;19921;-76
2023/08/21 11:26:10;;;;;;;;;;;;;;;;;;5031388;28;20420;-74
2023/08/21 11:28:36;;;;;;;;;;;;;;;;;;5032079;28;19925;-73
2023/08/21 11:31:01;;;;;;;;;;;;;;;;;;5040119;28;19928;-73
2023/08/21 11:33:28;;;;;;;;;;;;;;;;;;5015740;28;20026;-75
2023/08/21 11:35:54;;;;;;;;;;;;;;;;;;5020619;28;19928;-74
2023/08/21 11:38:20;;;;;;;;;;;;;;;;;;5030113;28;19925;-76
2023/08/21 11:40:46;;;;;;;;;;;;;;;;;;5032335;28;20056;-75
2023/08/21 11:43:12;;;;;;;;;;;;;;;;;;5030314;28;19921;-77
2023/08/21 11:45:38;;;;;;;;;;;;;;;;;;5012561;28;20278;-76
2023/08/21 11:48:03;;;;;;;;;;;;;;;;;;5025699;28;19921;-79
2023/08/21 11:50:29;;;;;;;;;;;;;;;;;;5031776;28;19920;-77
2023/08/21 11:52:55;;;;;;;;;;;;;;;;;;5033009;28;19925;-77
2023/08/21 11:55:21;;;;;;;;;;;;;;;;;;5027071;28;19925;-78
2023/08/21 11:57:47;;;;;;;;;;;;;;;;;;5024619;28;19925;-78
2023/08/21 12:00:13;;;;;;;;;;;;;;;;;;5031148;28;19928;-78
2023/08/21 12:02:39;;;;;;;;;;;;;;;;;;5015929;28;20282;-79
2023/08/21 12:05:05;;;;;;;;;;;;;;;;;;5031664;28;19929;-78
2023/08/21 12:07:31;;;;;;;;;;;;;;;;;;5032234;28;20047;-78
2023/08/21 12:09:57;;;;;;;;;;;;;;;;;;5032578;28;19921;-77
2023/08/21 12:12:23;;;;;;;;;;;;;;;;;;5015116;28;20535;-78
2023/08/21 12:14:49;;;;;;;;;;;;;;;;;;5019694;28;19928;-78
2023/08/21 12:17:15;;;;;;;;;;;;;;;;;;5031730;28;19925;-78
2023/08/21 12:19:44;;;;;;;;;;;;;;;;;;5032459;28;19921;-78
2023/08/21 12:22:10;;;;;;;;;;;;;;;;;;5032147;28;20354;-78
2023/08/21 12:24:39;;;;;;;;;;;;;;;;;;5015671;28;19925;-78
2023/08/21 12:27:05;;;;;;;;;;;;;;;;;;5029062;28;20418;-80
2023/08/21 12:29:31;;;;;;;;;;;;;;;;;;5031904;28;19921;-78
2023/08/21 12:31:57;;;;;;;;;;;;;;;;;;5031936;28;19921;-77
2023/08/21 12:34:23;;;;;;;;;;;;;;;;;;5014766;28;19927;-78
2023/08/21 12:36:49;;;;;;;;;;;;;;;;;;5032095;28;19921;-77
2023/08/21 12:39:16;;;;;;;;;;;;;;;;;;5029826;28;19925;-78
2023/08/21 12:42:01;;;;;;;;;;;;;;;;;;5031033;28;20368;-78
2023/08/21 12:48:11;;;;;;;;;;;;;;;;;;5011827;28;19929;-78
2023/08/21 12:51:13;;;;;;;;;;;;;;;;;;5029741;28;19916;-80
2023/08/21 12:53:53;;;;;;;;;;;;;;;;;;5031881;28;19944;-78
2023/08/21 12:56:58;;;;;;;;;;;;;;;;;;5005793;28;19943;-78
2023/08/21 13:00:04;;;;;;;;;;;;;;;;;;5029727;28;19943;-78
2023/08/21 13:02:52;;;;;;;;;;;;;;;;;;5029766;28;20415;-80
2023/08/21 13:08:35;;;;;;;;;;;;;;;;;;4989477;28;20020;-77
2023/08/21 13:11:29;;;;;;;;;;;;;;;;;;4991375;28;19916;-77
2023/08/21 13:13:55;;;;;;;;;;;;;;;;;;4990571;28;20264;-74
2023/08/21 13:16:21;;;;;;;;;;;;;;;;;;5006993;28;19928;-76
2023/08/21 13:18:47;;;;;;;;;;;;;;;;;;4974868;28;20330;-75
2023/08/21 13:21:13;;;;;;;;;;;;;;;;;;5007174;28;20005;-74
2023/08/21 13:23:39;;;;;;;;;;;;;;;;;;5007578;28;19968;-76
2023/08/21 13:26:05;;;;;;;;;;;;;;;;;;5007703;28;19933;-75
2023/08/21 13:28:31;;;;;;;;;;;;;;;;;;4973803;28;20057;-77
2023/08/21 13:30:58;;;;;;;;;;;;;;;;;;5007350;28;19931;-75
2023/08/21 13:33:24;;;;;;;;;;;;;;;;;;5004217;28;19929;-76
2023/08/21 13:35:49;;;;;;;;;;;;;;;;;;5007108;28;19930;-77
2023/08/21 13:38:15;;;;;;;;;;;;;;;;;;4990525;28;19996;-76
2023/08/21 13:40:41;;;;;;;;;;;;;;;;;;4971557;28;20028;-77
2023/08/21 13:43:09;;;;;;;;;;;;;;;;;;4981890;28;19929;-76
2023/08/21 13:45:35;;;;;;;;;;;;;;;;;;4971296;28;20021;-76
2023/08/21 13:48:03;;;;;;;;;;;;;;;;;;4979880;28;20349;-76
2023/08/21 13:50:29;;;;;;;;;;;;;;;;;;4989571;28;19922;-78
2023/08/21 13:52:56;;;;;;;;;;;;;;;;;;4990072;28;19929;-77
2023/08/21 13:55:22;;;;;;;;;;;;;;;;;;4990223;28;19925;-76
2023/08/21 13:57:48;;;;;;;;;;;;;;;;;;5006071;28;19937;-77
2023/08/21 14:00:17;;;;;;;;;;;;;;;;;;4974405;28;19922;-81
2023/08/21 14:02:43;;;;;;;;;;;;;;;;;;4989945;28;19932;-76
2023/08/21 14:05:09;;;;;;;;;;;;;;;;;;4990816;28;19930;-77
2023/08/21 14:07:36;;;;;;;;;;;;;;;;;;5013275;28;19929;-76
2023/08/21 14:10:02;;;;;;;;;;;;;;;;;;5030595;28;19991;-78
2023/08/21 14:12:28;;;;;;;;;;;;;;;;;;5008896;28;20030;-79
2023/08/21 14:14:54;;;;;;;;;;;;;;;;;;5027859;28;19927;-79
2023/08/21 14:17:19;;;;;;;;;;;;;;;;;;5029368;28;19957;-79
2023/08/21 14:19:45;;;;;;;;;;;;;;;;;;5029922;28;19947;-79
2023/08/21 14:22:11;;;;;;;;;;;;;;;;;;5026377;28;19921;-79
2023/08/21 14:24:37;;;;;;;;;;;;;;;;;;5009420;28;19928;-78
2023/08/21 14:27:03;;;;;;;;;;;;;;;;;;5021471;28;19921;-78
2023/08/21 14:29:29;;;;;;;;;;;;;;;;;;5013181;28;20477;-79
2023/08/21 14:31:57;;;;;;;;;;;;;;;;;;5030173;28;20251;-78
2023/08/21 14:34:23;;;;;;;;;;;;;;;;;;5013391;28;19920;-78
2023/08/21 14:36:49;;;;;;;;;;;;;;;;;;5029991;28;19921;-78
2023/08/21 14:39:16;;;;;;;;;;;;;;;;;;5013692;28;19928;-79
2023/08/21 14:41:42;;;;;;;;;;;;;;;;;;5011130;28;19917;-79
2023/08/21 14:44:08;;;;;;;;;;;;;;;;;;5010795;28;19925;-80
2023/08/21 14:46:34;;;;;;;;;;;;;;;;;;5022069;28;19921;-78
2023/08/21 14:49:00;;;;;;;;;;;;;;;;;;5026529;28;19980;-78
2023/08/21 14:51:26;;;;;;;;;;;;;;;;;;5029832;28;19964;-78
2023/08/21 14:53:52;;;;;;;;;;;;;;;;;;5029709;28;19944;-78
2023/08/21 14:58:56;;;;;;;3.22;0.90;;;;;;;;;;5090308;27;1959128;-76
2023/08/21 15:01:22;;;;;;;4.15;0.90;;;;;;;;;;5135107;27;20390;-78
2023/08/21 15:03:49;;;;;;;5.65;1.00;;;;;;;;;;5151343;27;20051;-77
2023/08/21 15:06:15;;;;;;;4.45;1.05;;;;;;;;;;5128899;27;20047;-77
2023/08/21 15:08:42;;;;;;;5.38;1.00;;;;;;;;;;5129435;27;20042;-80
2023/08/21 15:11:11;;;;;;;6.88;1.13;;;;;;;;;;5121574;27;20035;-76
2023/08/21 15:13:38;;;;;;;3.40;1.00;;;;;;;;;;5147027;27;20042;-76
2023/08/21 15:16:04;;;;;;;4.97;0.85;;;;;;;;;;5134521;27;20054;-77
2023/08/21 15:18:30;;;;;;;2.35;0.80;;;;;;;;;;5133385;27;20546;-76
2023/08/21 15:20:56;;;;;;;5.28;1.00;;;;;;;;;;5144008;27;20388;-76
2023/08/21 15:23:23;;;;;;;3.97;1.00;;;;;;;;;;5120791;27;20042;-78
2023/08/21 15:25:49;;;;;;;3.65;1.05;;;;;;;;;;5151605;27;20042;-77
2023/08/21 15:28:15;;;;;;;3.63;1.00;;;;;;;;;;5124076;27;20047;-78
2023/08/21 15:30:41;;;;;;;5.38;1.25;;;;;;;;;;5141222;27;20093;-79
2023/08/21 15:33:07;;;;;;;3.42;1.02;;;;;;;;;;5134269;27;20038;-78
2023/08/21 15:35:33;;;;;;;4.85;1.00;;;;;;;;;;5117618;27;20046;-79
2023/08/21 15:37:59;;;;;;;3.13;1.08;;;;;;;;;;5134349;27;20043;-78
2023/08/21 15:40:25;;;;;;;5.72;1.13;;;;;;;;;;5134256;27;20057;-79
2023/08/21 15:42:51;;;;;;;2.53;1.00;;;;;;;;;;5133115;27;20050;-74
2023/08/21 15:45:17;;;;;;;2.65;0.98;;;;;;;;;;5133150;27;20042;-80
2023/08/21 15:47:44;;;;;;;3.85;1.00;;;;;;;;;;5133329;27;20099;-82
2023/08/21 15:50:10;;;;;;;6.20;1.25;;;;;;;;;;5151421;27;20153;-82
2023/08/21 15:52:36;;;;;;;6.38;1.00;;;;;;;;;;5117141;27;20095;-81
2023/08/21 15:55:02;;;;;;;4.15;1.20;;;;;;;;;;5095160;27;20078;-82
2023/08/21 15:57:28;;;;;;;3.17;1.23;;;;;;;;;;5134003;27;20069;-83
2023/08/21 15:59:54;;;;;;;5.25;1.38;;;;;;;;;;5146225;27;20050;-81
2023/08/21 16:02:20;;;;;;;4.68;1.13;;;;;;;;;;5143235;27;20047;-83
2023/08/21 16:04:46;;;;;;;5.13;1.00;;;;;;;;;;5130229;27;20510;-81
2023/08/21 16:07:12;;;;;;;4.18;0.95;;;;;;;;;;5106383;27;20039;-82
2023/08/21 16:09:38;;;;;;;3.53;1.27;;;;;;;;;;5140849;27;20046;-81
2023/08/21 16:12:05;;;;;;;4.63;1.45;;;;;;;;;;5130097;27;20054;-83
2023/08/21 16:14:31;;;;;;;3.88;1.00;;;;;;;;;;5094362;27;20051;-85
2023/08/21 16:16:57;;;;;;;4.18;1.17;;;;;;;;;;5125438;27;20047;-75
2023/08/21 16:19:26;;;;;;;3.13;1.00;;;;;;;;;;5134914;27;20490;-89
2023/08/21 16:21:52;;;;;;;3.38;1.08;;;;;;;;;;5109809;27;20102;-88
2023/08/21 16:24:19;;;;;;;4.05;1.08;;;;;;;;;;5088035;27;20395;-86
2023/08/21 16:26:45;;;;;;;2.20;1.08;;;;;;;;;;5126409;27;20038;-86
2023/08/21 16:29:12;;;;;;;3.15;1.00;;;;;;;;;;5137192;27;20062;-86
2023/08/21 16:31:38;;;;;;;3.92;1.02;;;;;;;;;;5119512;27;20163;-86
2023/08/21 16:34:04;;;;;;;3.65;1.10;;;;;;;;;;5103359;27;20042;-89
2023/08/21 16:36:30;;;;;;;4.70;1.27;;;;;;;;;;5121911;27;20118;-88